sensor_id;sensor_type;location;lat;lon;timestamp;temperature;humidity
42907;DHT22;28552;51.146;6.576;2022-10-31T00:01:58;14.70;99.90
42907;DHT22;28552;51.146;6.576;2022-10-31T00:04:58;14.80;99.90
42907;DHT22;28552;51.146;6.576;2022-10-31T00:07:59;14.80;99.90
42907;DHT22;28552;51.146;6.576;2022-10-31T00:10:59;14.80;99.90
42907;DHT22;28552;51.146;6.576;2022-10-31T00:14:00;14.70;99.90
42907;DHT22;28552;51.146;6.576;2022-10-31T00:17:01;14.60;99.90
42907;DHT22;28552;51.146;6.576;2022-10-31T00:20:02;14.60;99.90
42907;DHT22;28552;51.146;6.576;2022-10-31T00:23:03;14.60;99.90
42907;DHT22;28552;51.146;6.576;2022-10-31T00:26:04;14.60;99.90
42907;DHT22;28552;51.146;6.576;2022-10-31T00:29:05;14.50;99.90
42907;DHT22;28552;51.146;6.576;2022-10-31T00:32:06;14.30;99.90
42907;DHT22;28552;51.146;6.576;2022-10-31T00:35:07;14.30;99.90
42907;DHT22;28552;51.146;6.576;2022-10-31T00:38:07;14.30;99.90
42907;DHT22;28552;51.146;6.576;2022-10-31T00:41:08;14.20;99.90
42907;DHT22;28552;51.146;6.576;2022-10-31T00:44:09;14.20;99.90
42907;DHT22;28552;51.146;6.576;2022-10-31T00:47:09;14.30;99.90
42907;DHT22;28552;51.146;6.576;2022-10-31T00:50:10;14.30;99.90
42907;DHT22;28552;51.146;6.576;2022-10-31T00:53:10;14.40;99.90
42907;DHT22;28552;51.146;6.576;2022-10-31T00:56:11;14.50;99.90
42907;DHT22;28552;51.146;6.576;2022-10-31T00:59:11;14.60;99.90
42907;DHT22;28552;51.146;6.576;2022-10-31T01:02:12;14.60;99.90
42907;DHT22;28552;51.146;6.576;2022-10-31T01:05:13;14.60;99.90
42907;DHT22;28552;51.146;6.576;2022-10-31T01:08:13;14.60;99.90
42907;DHT22;28552;51.146;6.576;2022-10-31T01:11:17;14.60;99.90
42907;DHT22;28552;51.146;6.576;2022-10-31T01:14:17;14.60;99.90
42907;DHT22;28552;51.146;6.576;2022-10-31T01:17:18;14.60;99.90
42907;DHT22;28552;51.146;6.576;2022-10-31T01:20:19;14.60;99.90
42907;DHT22;28552;51.146;6.576;2022-10-31T01:23:19;14.60;99.90
42907;DHT22;28552;51.146;6.576;2022-10-31T01:26:24;14.60;99.90
42907;DHT22;28552;51.146;6.576;2022-10-31T01:29:24;14.60;99.90
42907;DHT22;28552;51.146;6.576;2022-10-31T01:32:26;14.60;99.90
42907;DHT22;28552;51.146;6.576;2022-10-31T01:35:29;14.60;99.90
42907;DHT22;28552;51.146;6.576;2022-10-31T01:38:30;14.60;99.90
42907;DHT22;28552;51.146;6.576;2022-10-31T01:41:34;14.50;99.90
42907;DHT22;28552;51.146;6.576;2022-10-31T01:47:41;14.30;99.90
42907;DHT22;28552;51.146;6.576;2022-10-31T01:50:45;14.20;99.90
42907;DHT22;28552;51.146;6.576;2022-10-31T01:53:48;14.10;99.90
42907;DHT22;28552;51.146;6.576;2022-10-31T01:56:53;14.10;99.90
42907;DHT22;28552;51.146;6.576;2022-10-31T01:59:59;14.00;99.90
42907;DHT22;28552;51.146;6.576;2022-10-31T02:03:00;13.90;99.90
42907;DHT22;28552;51.146;6.576;2022-10-31T02:06:03;13.90;99.90
42907;DHT22;28552;51.146;6.576;2022-10-31T02:09:06;13.80;99.90
42907;DHT22;28552;51.146;6.576;2022-10-31T02:12:09;13.70;99.90
42907;DHT22;28552;51.146;6.576;2022-10-31T02:15:10;13.60;99.90
42907;DHT22;28552;51.146;6.576;2022-10-31T02:18:11;13.60;99.90
42907;DHT22;28552;51.146;6.576;2022-10-31T02:21:19;13.50;99.90
42907;DHT22;28552;51.146;6.576;2022-10-31T02:31:29;13.20;99.90
42907;DHT22;28552;51.146;6.576;2022-10-31T02:34:42;13.20;99.90
42907;DHT22;28552;51.146;6.576;2022-10-31T02:37:57;13.20;99.90
42907;DHT22;28552;51.146;6.576;2022-10-31T02:44:20;13.20;99.90
42907;DHT22;28552;51.146;6.576;2022-10-31T02:47:27;13.30;99.90
42907;DHT22;28552;51.146;6.576;2022-10-31T02:50:33;13.30;99.90
42907;DHT22;28552;51.146;6.576;2022-10-31T02:53:36;13.40;99.90
42907;DHT22;28552;51.146;6.576;2022-10-31T02:56:37;13.40;99.90
42907;DHT22;28552;51.146;6.576;2022-10-31T02:59:40;13.30;99.90
42907;DHT22;28552;51.146;6.576;2022-10-31T03:03:08;13.30;99.90
42907;DHT22;28552;51.146;6.576;2022-10-31T03:06:26;13.20;99.90
42907;DHT22;28552;51.146;6.576;2022-10-31T03:22:23;13.00;99.90
42907;DHT22;28552;51.146;6.576;2022-10-31T03:25:26;13.00;99.90
42907;DHT22;28552;51.146;6.576;2022-10-31T03:28:30;13.00;99.90
42907;DHT22;28552;51.146;6.576;2022-10-31T03:31:43;12.90;99.90
42907;DHT22;28552;51.146;6.576;2022-10-31T03:34:45;12.90;99.90
42907;DHT22;28552;51.146;6.576;2022-10-31T03:37:49;12.80;99.90
42907;DHT22;28552;51.146;6.576;2022-10-31T03:40:51;12.70;99.90
42907;DHT22;28552;51.146;6.576;2022-10-31T03:43:58;12.70;99.90
42907;DHT22;28552;51.146;6.576;2022-10-31T03:47:01;12.70;99.90
42907;DHT22;28552;51.146;6.576;2022-10-31T03:50:05;12.70;99.90
42907;DHT22;28552;51.146;6.576;2022-10-31T03:53:11;12.70;99.90
42907;DHT22;28552;51.146;6.576;2022-10-31T03:56:19;12.70;99.90
42907;DHT22;28552;51.146;6.576;2022-10-31T03:59:26;12.60;99.90
42907;DHT22;28552;51.146;6.576;2022-10-31T04:02:32;12.50;99.90
42907;DHT22;28552;51.146;6.576;2022-10-31T04:05:35;12.40;99.90
42907;DHT22;28552;51.146;6.576;2022-10-31T04:08:48;12.40;99.90
42907;DHT22;28552;51.146;6.576;2022-10-31T04:11:53;12.30;99.90
42907;DHT22;28552;51.146;6.576;2022-10-31T04:14:55;12.30;99.90
42907;DHT22;28552;51.146;6.576;2022-10-31T04:17:58;12.20;99.90
42907;DHT22;28552;51.146;6.576;2022-10-31T04:21:02;12.30;99.90
42907;DHT22;28552;51.146;6.576;2022-10-31T04:24:03;12.40;99.90
42907;DHT22;28552;51.146;6.576;2022-10-31T04:27:03;12.40;99.90
42907;DHT22;28552;51.146;6.576;2022-10-31T04:30:04;12.40;99.90
42907;DHT22;28552;51.146;6.576;2022-10-31T04:33:05;12.40;99.90
42907;DHT22;28552;51.146;6.576;2022-10-31T04:36:06;12.40;99.90
42907;DHT22;28552;51.146;6.576;2022-10-31T04:39:06;12.30;99.90
42907;DHT22;28552;51.146;6.576;2022-10-31T04:42:07;12.30;99.90
42907;DHT22;28552;51.146;6.576;2022-10-31T04:45:08;12.30;99.90
42907;DHT22;28552;51.146;6.576;2022-10-31T04:48:08;12.30;99.90
42907;DHT22;28552;51.146;6.576;2022-10-31T04:51:09;12.20;99.90
42907;DHT22;28552;51.146;6.576;2022-10-31T04:54:09;12.30;99.90
42907;DHT22;28552;51.146;6.576;2022-10-31T04:57:10;12.30;99.90
42907;DHT22;28552;51.146;6.576;2022-10-31T05:00:12;12.30;99.90
42907;DHT22;28552;51.146;6.576;2022-10-31T05:03:13;12.30;99.90
42907;DHT22;28552;51.146;6.576;2022-10-31T05:06:13;12.30;99.90
42907;DHT22;28552;51.146;6.576;2022-10-31T05:09:14;12.20;99.90
42907;DHT22;28552;51.146;6.576;2022-10-31T05:12:14;12.20;99.90
42907;DHT22;28552;51.146;6.576;2022-10-31T05:15:16;12.20;99.90
42907;DHT22;28552;51.146;6.576;2022-10-31T05:18:17;12.20;99.90
42907;DHT22;28552;51.146;6.576;2022-10-31T05:21:17;12.10;99.90
42907;DHT22;28552;51.146;6.576;2022-10-31T05:24:18;12.20;99.90
42907;DHT22;28552;51.146;6.576;2022-10-31T05:27:22;12.20;99.90
42907;DHT22;28552;51.146;6.576;2022-10-31T05:30:26;12.20;99.90
42907;DHT22;28552;51.146;6.576;2022-10-31T05:33:27;12.20;99.90
42907;DHT22;28552;51.146;6.576;2022-10-31T05:36:27;12.20;99.90
42907;DHT22;28552;51.146;6.576;2022-10-31T05:39:28;12.20;99.90
42907;DHT22;28552;51.146;6.576;2022-10-31T05:42:28;12.20;99.90
42907;DHT22;28552;51.146;6.576;2022-10-31T05:45:29;12.20;99.90
42907;DHT22;28552;51.146;6.576;2022-10-31T05:48:29;12.20;99.90
42907;DHT22;28552;51.146;6.576;2022-10-31T05:51:30;12.20;99.90
42907;DHT22;28552;51.146;6.576;2022-10-31T05:54:30;12.20;99.90
42907;DHT22;28552;51.146;6.576;2022-10-31T05:57:32;12.10;99.90
42907;DHT22;28552;51.146;6.576;2022-10-31T06:00:33;12.10;99.90
42907;DHT22;28552;51.146;6.576;2022-10-31T06:03:35;12.10;99.90
42907;DHT22;28552;51.146;6.576;2022-10-31T06:06:35;12.10;99.90
42907;DHT22;28552;51.146;6.576;2022-10-31T06:09:36;12.10;99.90
42907;DHT22;28552;51.146;6.576;2022-10-31T06:12:36;12.00;99.90
42907;DHT22;28552;51.146;6.576;2022-10-31T06:15:37;11.90;99.90
42907;DHT22;28552;51.146;6.576;2022-10-31T06:18:38;11.80;99.90
42907;DHT22;28552;51.146;6.576;2022-10-31T06:21:38;11.70;99.90
42907;DHT22;28552;51.146;6.576;2022-10-31T06:24:39;11.60;99.90
42907;DHT22;28552;51.146;6.576;2022-10-31T06:27:39;11.50;99.90
42907;DHT22;28552;51.146;6.576;2022-10-31T06:30:40;11.50;99.90
42907;DHT22;28552;51.146;6.576;2022-10-31T06:33:41;11.40;99.90
42907;DHT22;28552;51.146;6.576;2022-10-31T06:36:42;11.40;99.90
42907;DHT22;28552;51.146;6.576;2022-10-31T06:39:43;11.40;99.90
42907;DHT22;28552;51.146;6.576;2022-10-31T06:42:43;11.40;99.90
42907;DHT22;28552;51.146;6.576;2022-10-31T06:45:44;11.30;99.90
42907;DHT22;28552;51.146;6.576;2022-10-31T06:48:44;11.30;99.90
42907;DHT22;28552;51.146;6.576;2022-10-31T06:51:48;11.30;99.90
42907;DHT22;28552;51.146;6.576;2022-10-31T06:54:49;11.30;99.90
42907;DHT22;28552;51.146;6.576;2022-10-31T06:57:52;11.30;99.90
42907;DHT22;28552;51.146;6.576;2022-10-31T07:00:53;11.30;99.90
42907;DHT22;28552;51.146;6.576;2022-10-31T07:03:53;11.40;99.90
42907;DHT22;28552;51.146;6.576;2022-10-31T07:06:54;11.40;99.90
42907;DHT22;28552;51.146;6.576;2022-10-31T07:09:54;11.40;99.90
42907;DHT22;28552;51.146;6.576;2022-10-31T07:12:57;11.50;99.90
42907;DHT22;28552;51.146;6.576;2022-10-31T07:16:01;11.50;99.90
42907;DHT22;28552;51.146;6.576;2022-10-31T07:19:02;11.60;99.90
42907;DHT22;28552;51.146;6.576;2022-10-31T07:22:02;11.60;99.90
42907;DHT22;28552;51.146;6.576;2022-10-31T07:25:03;11.60;99.90
42907;DHT22;28552;51.146;6.576;2022-10-31T07:28:04;11.70;99.90
42907;DHT22;28552;51.146;6.576;2022-10-31T07:31:05;11.70;99.90
42907;DHT22;28552;51.146;6.576;2022-10-31T07:34:06;11.70;99.90
42907;DHT22;28552;51.146;6.576;2022-10-31T07:37:06;11.70;99.90
42907;DHT22;28552;51.146;6.576;2022-10-31T07:40:08;11.80;99.90
42907;DHT22;28552;51.146;6.576;2022-10-31T07:43:10;11.80;99.90
42907;DHT22;28552;51.146;6.576;2022-10-31T07:46:12;11.90;99.90
42907;DHT22;28552;51.146;6.576;2022-10-31T07:49:12;12.00;99.90
42907;DHT22;28552;51.146;6.576;2022-10-31T07:52:13;12.00;99.90
42907;DHT22;28552;51.146;6.576;2022-10-31T07:55:14;12.10;99.90
42907;DHT22;28552;51.146;6.576;2022-10-31T07:58:16;12.20;99.90
42907;DHT22;28552;51.146;6.576;2022-10-31T08:01:17;12.20;99.90
42907;DHT22;28552;51.146;6.576;2022-10-31T08:04:17;12.30;99.90
42907;DHT22;28552;51.146;6.576;2022-10-31T08:07:18;12.40;99.90
42907;DHT22;28552;51.146;6.576;2022-10-31T08:10:19;12.50;99.90
42907;DHT22;28552;51.146;6.576;2022-10-31T08:13:20;12.50;99.90
42907;DHT22;28552;51.146;6.576;2022-10-31T08:16:21;12.60;99.90
42907;DHT22;28552;51.146;6.576;2022-10-31T08:19:21;12.70;99.90
42907;DHT22;28552;51.146;6.576;2022-10-31T08:22:22;12.80;99.90
42907;DHT22;28552;51.146;6.576;2022-10-31T08:25:23;12.90;99.90
42907;DHT22;28552;51.146;6.576;2022-10-31T08:28:23;13.00;99.90
42907;DHT22;28552;51.146;6.576;2022-10-31T08:31:24;13.10;99.90
42907;DHT22;28552;51.146;6.576;2022-10-31T08:34:26;13.20;99.90
42907;DHT22;28552;51.146;6.576;2022-10-31T08:37:27;13.20;99.90
42907;DHT22;28552;51.146;6.576;2022-10-31T08:40:29;13.30;99.90
42907;DHT22;28552;51.146;6.576;2022-10-31T08:43:30;13.30;99.90
42907;DHT22;28552;51.146;6.576;2022-10-31T08:46:31;13.40;99.90
42907;DHT22;28552;51.146;6.576;2022-10-31T08:49:32;13.40;99.90
42907;DHT22;28552;51.146;6.576;2022-10-31T08:52:32;13.40;99.90
42907;DHT22;28552;51.146;6.576;2022-10-31T08:55:34;13.40;99.90
42907;DHT22;28552;51.146;6.576;2022-10-31T08:58:35;13.50;99.90
42907;DHT22;28552;51.146;6.576;2022-10-31T09:01:36;13.60;99.90
42907;DHT22;28552;51.146;6.576;2022-10-31T09:04:36;13.60;99.90
42907;DHT22;28552;51.146;6.576;2022-10-31T09:07:37;13.60;99.90
42907;DHT22;28552;51.146;6.576;2022-10-31T09:10:37;13.80;99.90
42907;DHT22;28552;51.146;6.576;2022-10-31T09:13:38;13.80;99.90
42907;DHT22;28552;51.146;6.576;2022-10-31T09:16:39;13.90;99.90
42907;DHT22;28552;51.146;6.576;2022-10-31T09:19:39;14.00;99.90
42907;DHT22;28552;51.146;6.576;2022-10-31T09:22:40;14.00;99.90
42907;DHT22;28552;51.146;6.576;2022-10-31T09:25:41;14.10;99.90
42907;DHT22;28552;51.146;6.576;2022-10-31T09:28:42;14.20;99.90
42907;DHT22;28552;51.146;6.576;2022-10-31T09:31:45;14.30;99.90
42907;DHT22;28552;51.146;6.576;2022-10-31T09:34:45;14.50;99.90
42907;DHT22;28552;51.146;6.576;2022-10-31T09:37:46;14.60;99.90
42907;DHT22;28552;51.146;6.576;2022-10-31T09:40:54;14.70;99.90
42907;DHT22;28552;51.146;6.576;2022-10-31T09:50:46;14.90;99.90
42907;DHT22;28552;51.146;6.576;2022-10-31T09:56:52;14.90;99.90
42907;DHT22;28552;51.146;6.576;2022-10-31T09:59:52;14.90;99.90
42907;DHT22;28552;51.146;6.576;2022-10-31T10:03:06;14.90;99.90
42907;DHT22;28552;51.146;6.576;2022-10-31T10:06:21;15.00;99.90
42907;DHT22;28552;51.146;6.576;2022-10-31T10:09:26;15.20;99.90
42907;DHT22;28552;51.146;6.576;2022-10-31T10:12:55;15.20;99.90
42907;DHT22;28552;51.146;6.576;2022-10-31T10:25:53;15.40;99.90
42907;DHT22;28552;51.146;6.576;2022-10-31T10:29:01;15.40;99.90
42907;DHT22;28552;51.146;6.576;2022-10-31T10:32:10;15.50;99.90
42907;DHT22;28552;51.146;6.576;2022-10-31T10:35:29;15.50;99.90
42907;DHT22;28552;51.146;6.576;2022-10-31T10:38:37;15.60;99.90
42907;DHT22;28552;51.146;6.576;2022-10-31T10:41:43;15.60;99.90
42907;DHT22;28552;51.146;6.576;2022-10-31T10:44:47;15.70;99.90
42907;DHT22;28552;51.146;6.576;2022-10-31T10:51:27;15.80;99.90
42907;DHT22;28552;51.146;6.576;2022-10-31T10:54:46;15.80;99.90
42907;DHT22;28552;51.146;6.576;2022-10-31T10:57:58;15.90;99.90
42907;DHT22;28552;51.146;6.576;2022-10-31T11:01:00;16.00;99.90
42907;DHT22;28552;51.146;6.576;2022-10-31T11:04:02;16.00;99.90
42907;DHT22;28552;51.146;6.576;2022-10-31T11:07:05;16.10;99.90
42907;DHT22;28552;51.146;6.576;2022-10-31T11:10:12;16.20;99.90
42907;DHT22;28552;51.146;6.576;2022-10-31T11:16:38;16.30;99.90
42907;DHT22;28552;51.146;6.576;2022-10-31T11:19:39;16.40;99.90
42907;DHT22;28552;51.146;6.576;2022-10-31T11:22:41;16.50;99.90
42907;DHT22;28552;51.146;6.576;2022-10-31T11:26:00;16.50;99.90
42907;DHT22;28552;51.146;6.576;2022-10-31T11:29:01;16.60;99.90
42907;DHT22;28552;51.146;6.576;2022-10-31T11:32:03;16.60;99.90
42907;DHT22;28552;51.146;6.576;2022-10-31T11:35:09;16.70;99.90
42907;DHT22;28552;51.146;6.576;2022-10-31T11:38:18;16.70;99.90
42907;DHT22;28552;51.146;6.576;2022-10-31T11:41:29;16.80;99.90
42907;DHT22;28552;51.146;6.576;2022-10-31T11:44:31;16.80;99.90
42907;DHT22;28552;51.146;6.576;2022-10-31T11:47:33;16.90;99.90
42907;DHT22;28552;51.146;6.576;2022-10-31T11:50:38;17.00;99.90
42907;DHT22;28552;51.146;6.576;2022-10-31T11:53:51;17.00;99.90
42907;DHT22;28552;51.146;6.576;2022-10-31T11:56:52;17.00;99.90
42907;DHT22;28552;51.146;6.576;2022-10-31T11:59:55;17.00;99.90
42907;DHT22;28552;51.146;6.576;2022-10-31T12:06:35;17.10;99.90
42907;DHT22;28552;51.146;6.576;2022-10-31T12:09:38;17.20;99.90
42907;DHT22;28552;51.146;6.576;2022-10-31T12:15:56;17.30;99.90
42907;DHT22;28552;51.146;6.576;2022-10-31T12:19:06;17.40;99.90
42907;DHT22;28552;51.146;6.576;2022-10-31T12:32:34;17.50;99.90
42907;DHT22;28552;51.146;6.576;2022-10-31T12:42:31;17.70;99.90
42907;DHT22;28552;51.146;6.576;2022-10-31T12:45:49;17.70;99.90
42907;DHT22;28552;51.146;6.576;2022-10-31T12:49:07;17.70;99.90
42907;DHT22;28552;51.146;6.576;2022-10-31T12:52:31;17.70;99.90
42907;DHT22;28552;51.146;6.576;2022-10-31T12:59:02;17.70;99.90
42907;DHT22;28552;51.146;6.576;2022-10-31T13:02:21;17.60;99.90
42907;DHT22;28552;51.146;6.576;2022-10-31T13:05:39;17.60;99.90
42907;DHT22;28552;51.146;6.576;2022-10-31T13:08:44;17.60;99.90
42907;DHT22;28552;51.146;6.576;2022-10-31T13:11:50;17.50;99.90
42907;DHT22;28552;51.146;6.576;2022-10-31T13:14:55;17.60;99.90
42907;DHT22;28552;51.146;6.576;2022-10-31T13:18:03;17.60;99.90
42907;DHT22;28552;51.146;6.576;2022-10-31T13:21:10;17.60;99.90
42907;DHT22;28552;51.146;6.576;2022-10-31T13:24:17;17.60;99.90
42907;DHT22;28552;51.146;6.576;2022-10-31T13:27:24;17.70;99.90
42907;DHT22;28552;51.146;6.576;2022-10-31T13:30:28;17.70;99.90
42907;DHT22;28552;51.146;6.576;2022-10-31T13:33:35;17.70;99.90
42907;DHT22;28552;51.146;6.576;2022-10-31T13:36:44;17.70;99.90
42907;DHT22;28552;51.146;6.576;2022-10-31T13:39:51;17.70;99.90
42907;DHT22;28552;51.146;6.576;2022-10-31T13:43:16;17.80;99.90
42907;DHT22;28552;51.146;6.576;2022-10-31T13:46:24;17.80;99.90
42907;DHT22;28552;51.146;6.576;2022-10-31T13:49:37;17.80;99.90
42907;DHT22;28552;51.146;6.576;2022-10-31T13:52:38;17.80;99.90
42907;DHT22;28552;51.146;6.576;2022-10-31T13:55:44;17.80;99.90
42907;DHT22;28552;51.146;6.576;2022-10-31T14:02:10;17.80;99.90
42907;DHT22;28552;51.146;6.576;2022-10-31T14:05:26;17.80;99.90
42907;DHT22;28552;51.146;6.576;2022-10-31T14:08:28;17.80;99.90
42907;DHT22;28552;51.146;6.576;2022-10-31T14:11:30;17.70;99.90
42907;DHT22;28552;51.146;6.576;2022-10-31T14:17:55;17.70;99.90
42907;DHT22;28552;51.146;6.576;2022-10-31T14:20:57;17.70;99.90
42907;DHT22;28552;51.146;6.576;2022-10-31T14:23:58;17.70;99.90
42907;DHT22;28552;51.146;6.576;2022-10-31T14:27:02;17.70;99.90
42907;DHT22;28552;51.146;6.576;2022-10-31T14:30:19;17.60;99.90
42907;DHT22;28552;51.146;6.576;2022-10-31T14:33:22;17.60;99.90
42907;DHT22;28552;51.146;6.576;2022-10-31T14:40:03;17.50;99.90
42907;DHT22;28552;51.146;6.576;2022-10-31T14:53:33;17.50;99.90
42907;DHT22;28552;51.146;6.576;2022-10-31T14:56:37;17.50;99.90
42907;DHT22;28552;51.146;6.576;2022-10-31T14:59:45;17.50;99.90
42907;DHT22;28552;51.146;6.576;2022-10-31T15:03:04;17.50;99.90
42907;DHT22;28552;51.146;6.576;2022-10-31T15:06:12;17.50;99.90
42907;DHT22;28552;51.146;6.576;2022-10-31T15:09:29;17.50;99.90
42907;DHT22;28552;51.146;6.576;2022-10-31T15:12:32;17.50;99.90
42907;DHT22;28552;51.146;6.576;2022-10-31T15:15:33;17.60;99.90
42907;DHT22;28552;51.146;6.576;2022-10-31T15:18:34;17.60;99.90
42907;DHT22;28552;51.146;6.576;2022-10-31T15:21:36;17.60;99.90
42907;DHT22;28552;51.146;6.576;2022-10-31T15:24:41;17.60;99.90
42907;DHT22;28552;51.146;6.576;2022-10-31T15:27:42;17.60;99.90
42907;DHT22;28552;51.146;6.576;2022-10-31T15:30:51;17.60;99.90
42907;DHT22;28552;51.146;6.576;2022-10-31T15:33:52;17.50;99.90
42907;DHT22;28552;51.146;6.576;2022-10-31T15:36:54;17.50;99.90
42907;DHT22;28552;51.146;6.576;2022-10-31T15:39:55;17.40;99.90
42907;DHT22;28552;51.146;6.576;2022-10-31T15:42:59;17.40;99.90
42907;DHT22;28552;51.146;6.576;2022-10-31T15:46:00;17.30;99.90
42907;DHT22;28552;51.146;6.576;2022-10-31T15:49:02;17.20;99.90
42907;DHT22;28552;51.146;6.576;2022-10-31T15:52:05;17.20;99.90
42907;DHT22;28552;51.146;6.576;2022-10-31T15:55:21;17.10;99.90
42907;DHT22;28552;51.146;6.576;2022-10-31T15:58:23;17.10;99.90
42907;DHT22;28552;51.146;6.576;2022-10-31T16:01:25;17.00;99.90
42907;DHT22;28552;51.146;6.576;2022-10-31T16:04:27;16.90;99.90
42907;DHT22;28552;51.146;6.576;2022-10-31T16:07:28;16.90;99.90
42907;DHT22;28552;51.146;6.576;2022-10-31T16:10:33;16.80;99.90
42907;DHT22;28552;51.146;6.576;2022-10-31T16:13:40;16.80;99.90
42907;DHT22;28552;51.146;6.576;2022-10-31T16:16:45;16.70;99.90
42907;DHT22;28552;51.146;6.576;2022-10-31T16:23:16;16.60;99.90
42907;DHT22;28552;51.146;6.576;2022-10-31T16:26:18;16.60;99.90
42907;DHT22;28552;51.146;6.576;2022-10-31T16:29:42;16.50;99.90
42907;DHT22;28552;51.146;6.576;2022-10-31T16:32:59;16.50;99.90
42907;DHT22;28552;51.146;6.576;2022-10-31T16:36:13;16.50;99.90
42907;DHT22;28552;51.146;6.576;2022-10-31T16:39:21;16.50;99.90
42907;DHT22;28552;51.146;6.576;2022-10-31T16:42:22;16.50;99.90
42907;DHT22;28552;51.146;6.576;2022-10-31T16:45:24;16.40;99.90
42907;DHT22;28552;51.146;6.576;2022-10-31T16:48:25;16.40;99.90
42907;DHT22;28552;51.146;6.576;2022-10-31T16:51:26;16.30;99.90
42907;DHT22;28552;51.146;6.576;2022-10-31T16:54:28;16.30;99.90
42907;DHT22;28552;51.146;6.576;2022-10-31T16:57:31;16.20;99.90
42907;DHT22;28552;51.146;6.576;2022-10-31T17:00:31;16.20;99.90
42907;DHT22;28552;51.146;6.576;2022-10-31T17:03:32;16.10;99.90
42907;DHT22;28552;51.146;6.576;2022-10-31T17:06:32;16.10;99.90
42907;DHT22;28552;51.146;6.576;2022-10-31T17:09:33;16.10;99.90
42907;DHT22;28552;51.146;6.576;2022-10-31T17:12:33;16.10;99.90
42907;DHT22;28552;51.146;6.576;2022-10-31T17:15:38;16.10;99.90
42907;DHT22;28552;51.146;6.576;2022-10-31T17:18:40;16.10;99.90
42907;DHT22;28552;51.146;6.576;2022-10-31T17:21:42;16.10;99.90
42907;DHT22;28552;51.146;6.576;2022-10-31T17:24:43;16.10;99.90
42907;DHT22;28552;51.146;6.576;2022-10-31T17:27:44;16.10;99.90
42907;DHT22;28552;51.146;6.576;2022-10-31T17:30:45;16.10;99.90
42907;DHT22;28552;51.146;6.576;2022-10-31T17:33:45;16.10;99.90
42907;DHT22;28552;51.146;6.576;2022-10-31T17:36:50;16.10;99.90
42907;DHT22;28552;51.146;6.576;2022-10-31T17:39:51;16.10;99.90
42907;DHT22;28552;51.146;6.576;2022-10-31T17:42:53;16.10;99.90
42907;DHT22;28552;51.146;6.576;2022-10-31T17:45:54;16.10;99.90
42907;DHT22;28552;51.146;6.576;2022-10-31T17:48:54;16.10;99.90
42907;DHT22;28552;51.146;6.576;2022-10-31T17:51:55;16.00;99.90
42907;DHT22;28552;51.146;6.576;2022-10-31T17:54:56;16.10;99.90
42907;DHT22;28552;51.146;6.576;2022-10-31T17:57:56;16.00;99.90
42907;DHT22;28552;51.146;6.576;2022-10-31T18:00:57;16.00;99.90
42907;DHT22;28552;51.146;6.576;2022-10-31T18:03:58;16.00;99.90
42907;DHT22;28552;51.146;6.576;2022-10-31T18:06:58;15.90;99.90
42907;DHT22;28552;51.146;6.576;2022-10-31T18:09:59;15.90;99.90
42907;DHT22;28552;51.146;6.576;2022-10-31T18:13:00;15.80;99.90
42907;DHT22;28552;51.146;6.576;2022-10-31T18:16:00;15.80;99.90
42907;DHT22;28552;51.146;6.576;2022-10-31T18:19:01;15.80;99.90
42907;DHT22;28552;51.146;6.576;2022-10-31T18:22:03;15.70;99.90
42907;DHT22;28552;51.146;6.576;2022-10-31T18:25:04;15.60;99.90
42907;DHT22;28552;51.146;6.576;2022-10-31T18:28:06;15.60;99.90
42907;DHT22;28552;51.146;6.576;2022-10-31T18:31:06;15.50;99.90
42907;DHT22;28552;51.146;6.576;2022-10-31T18:34:07;15.40;99.90
42907;DHT22;28552;51.146;6.576;2022-10-31T18:37:08;15.30;99.90
42907;DHT22;28552;51.146;6.576;2022-10-31T18:40:09;15.30;99.90
42907;DHT22;28552;51.146;6.576;2022-10-31T18:43:10;15.30;99.90
42907;DHT22;28552;51.146;6.576;2022-10-31T18:46:13;15.30;99.90
42907;DHT22;28552;51.146;6.576;2022-10-31T18:49:14;15.30;99.90
42907;DHT22;28552;51.146;6.576;2022-10-31T18:52:21;15.30;99.90
42907;DHT22;28552;51.146;6.576;2022-10-31T18:55:22;15.20;99.90
42907;DHT22;28552;51.146;6.576;2022-10-31T18:58:22;15.20;99.90
42907;DHT22;28552;51.146;6.576;2022-10-31T19:01:23;15.20;99.90
42907;DHT22;28552;51.146;6.576;2022-10-31T19:04:23;15.10;99.90
42907;DHT22;28552;51.146;6.576;2022-10-31T19:07:24;15.10;99.90
42907;DHT22;28552;51.146;6.576;2022-10-31T19:10:24;15.10;99.90
42907;DHT22;28552;51.146;6.576;2022-10-31T19:13:25;15.10;99.90
42907;DHT22;28552;51.146;6.576;2022-10-31T19:16:26;15.00;99.90
42907;DHT22;28552;51.146;6.576;2022-10-31T19:19:27;15.00;99.90
42907;DHT22;28552;51.146;6.576;2022-10-31T19:22:30;15.00;99.90
42907;DHT22;28552;51.146;6.576;2022-10-31T19:25:31;14.90;99.90
42907;DHT22;28552;51.146;6.576;2022-10-31T19:28:33;14.90;99.90
42907;DHT22;28552;51.146;6.576;2022-10-31T19:31:34;14.80;99.90
42907;DHT22;28552;51.146;6.576;2022-10-31T19:34:35;14.80;99.90
42907;DHT22;28552;51.146;6.576;2022-10-31T19:37:36;14.80;99.90
42907;DHT22;28552;51.146;6.576;2022-10-31T19:40:36;14.70;99.90
42907;DHT22;28552;51.146;6.576;2022-10-31T19:43:37;14.70;99.90
42907;DHT22;28552;51.146;6.576;2022-10-31T19:46:38;14.70;99.90
42907;DHT22;28552;51.146;6.576;2022-10-31T19:49:43;14.60;99.90
42907;DHT22;28552;51.146;6.576;2022-10-31T19:52:44;14.50;99.90
42907;DHT22;28552;51.146;6.576;2022-10-31T19:55:45;14.50;99.90
42907;DHT22;28552;51.146;6.576;2022-10-31T19:58:46;14.40;99.90
42907;DHT22;28552;51.146;6.576;2022-10-31T20:01:47;14.40;99.90
42907;DHT22;28552;51.146;6.576;2022-10-31T20:04:47;14.40;99.90
42907;DHT22;28552;51.146;6.576;2022-10-31T20:07:48;14.30;99.90
42907;DHT22;28552;51.146;6.576;2022-10-31T20:10:55;14.30;99.90
42907;DHT22;28552;51.146;6.576;2022-10-31T20:13:57;14.30;99.90
42907;DHT22;28552;51.146;6.576;2022-10-31T20:16:58;14.30;99.90
42907;DHT22;28552;51.146;6.576;2022-10-31T20:19:58;14.30;99.90
42907;DHT22;28552;51.146;6.576;2022-10-31T20:22:59;14.30;99.90
42907;DHT22;28552;51.146;6.576;2022-10-31T20:26:00;14.30;99.90
42907;DHT22;28552;51.146;6.576;2022-10-31T20:29:01;14.30;99.90
42907;DHT22;28552;51.146;6.576;2022-10-31T20:32:02;14.20;99.90
42907;DHT22;28552;51.146;6.576;2022-10-31T20:35:03;14.20;99.90
42907;DHT22;28552;51.146;6.576;2022-10-31T20:38:04;14.20;99.90
42907;DHT22;28552;51.146;6.576;2022-10-31T20:41:07;14.20;99.90
42907;DHT22;28552;51.146;6.576;2022-10-31T20:44:08;14.20;99.90
42907;DHT22;28552;51.146;6.576;2022-10-31T20:47:09;14.10;99.90
42907;DHT22;28552;51.146;6.576;2022-10-31T20:50:09;14.10;99.90
42907;DHT22;28552;51.146;6.576;2022-10-31T20:53:17;14.10;99.90
42907;DHT22;28552;51.146;6.576;2022-10-31T20:56:23;14.10;99.90
42907;DHT22;28552;51.146;6.576;2022-10-31T20:59:24;14.10;99.90
42907;DHT22;28552;51.146;6.576;2022-10-31T21:02:24;14.10;99.90